Terminal Aerodrome Forecast
Issued by NWS

Current Version | Previous Version | Text Only | Print | Product List | Glossary On
Versions: 1 2 3 4 5 6 7 8 9 10 11 12 13 14 15 16 17
000
FTUS41 KPBZ 241100
TAFHLG
TAF
KHLG 241120Z 2412/2512 21018G29KT P6SM VCSH BKN035 OVC045
     FM241600 21020G45KT P6SM BKN050
     FM242200 24017G30KT P6SM BKN050
     FM250600 23010G20KT P6SM BKN025=

USA.gov is the U.S. government's official web portal to all federal, state and local government web resources and services.